LNI727 WAWW-WARR
Flight info
| Callsign | LNI727 |
|---|---|
| Flight time | N/A |
| Altitude | 36000 |
| Route | LEKEX W41 MKS W32 SUSIL W32N KOLTA |
| Aircraft | B738/M-SDE2E3FGHIRWXY/LB1 |
Departure
| Time | 2026-05-08 08:52 |
|---|---|
| Airport | Haluoleo Airport (WAWW) |
Arrival
| Time | N/A |
|---|---|
| Airport | Juanda International Airport (WARR) |
| Time | Latitude | Longitude | Altitude | Speed | Heading |
|---|---|---|---|---|---|
| 2026-05-08 08:06 | -4.07765 | 122.41900 | 168 ft | 0 kts | 349° |
| 2026-05-08 08:37 | -4.07779 | 122.41903 | 165 ft | 4 kts | 349° |
| 2026-05-08 08:37 | -4.07805 | 122.41909 | 168 ft | 4 kts | 339° |
| 2026-05-08 08:37 | -4.07824 | 122.41921 | 168 ft | 4 kts | 280° |
| 2026-05-08 08:38 | -4.07824 | 122.41927 | 167 ft | 0 kts | 259° |
| 2026-05-08 08:41 | -4.07825 | 122.41923 | 167 ft | 2 kts | 259° |
| 2026-05-08 08:41 | -4.07831 | 122.41891 | 167 ft | 7 kts | 259° |
| 2026-05-08 08:41 | -4.07843 | 122.41830 | 168 ft | 11 kts | 259° |
| 2026-05-08 08:41 | -4.07858 | 122.41747 | 167 ft | 13 kts | 259° |
| 2026-05-08 08:42 | -4.07885 | 122.41692 | 167 ft | 7 kts | 211° |
| 2026-05-08 08:42 | -4.07935 | 122.41693 | 167 ft | 7 kts | 170° |
| 2026-05-08 08:42 | -4.07985 | 122.41702 | 167 ft | 7 kts | 170° |
| 2026-05-08 08:42 | -4.08032 | 122.41710 | 167 ft | 7 kts | 170° |
| 2026-05-08 08:43 | -4.08079 | 122.41719 | 167 ft | 7 kts | 170° |
| 2026-05-08 08:43 | -4.08125 | 122.41727 | 167 ft | 7 kts | 170° |
| 2026-05-08 08:43 | -4.08170 | 122.41733 | 167 ft | 6 kts | 185° |
| 2026-05-08 08:43 | -4.08202 | 122.41705 | 167 ft | 7 kts | 248° |
| 2026-05-08 08:44 | -4.08212 | 122.41660 | 167 ft | 7 kts | 261° |
| 2026-05-08 08:44 | -4.08220 | 122.41613 | 166 ft | 7 kts | 259° |
| 2026-05-08 08:44 | -4.08230 | 122.41560 | 166 ft | 9 kts | 259° |
| 2026-05-08 08:44 | -4.08241 | 122.41498 | 166 ft | 10 kts | 259° |
| 2026-05-08 08:45 | -4.08255 | 122.41423 | 166 ft | 12 kts | 259° |
| 2026-05-08 08:45 | -4.08272 | 122.41329 | 166 ft | 15 kts | 259° |
| 2026-05-08 08:45 | -4.08292 | 122.41221 | 167 ft | 17 kts | 259° |
| 2026-05-08 08:45 | -4.08313 | 122.41102 | 168 ft | 18 kts | 260° |
| 2026-05-08 08:46 | -4.08333 | 122.40989 | 168 ft | 11 kts | 260° |
| 2026-05-08 08:46 | -4.08363 | 122.40926 | 169 ft | 9 kts | 239° |
| 2026-05-08 08:46 | -4.08372 | 122.40884 | 169 ft | 4 kts | 296° |
| 2026-05-08 08:46 | -4.08354 | 122.40881 | 169 ft | 2 kts | 35° |
| 2026-05-08 08:47 | -4.08349 | 122.40898 | 169 ft | 0 kts | 80° |
| 2026-05-08 08:51 | -4.08345 | 122.40920 | 168 ft | 11 kts | 80° |
| 2026-05-08 08:52 | -4.08286 | 122.41248 | 167 ft | 85 kts | 80° |
| 2026-05-08 08:52 | -4.08140 | 122.42057 | 168 ft | 148 kts | 79° |
| 2026-05-08 08:52 | -4.07939 | 122.43176 | 565 ft | 168 kts | 80° |
| 2026-05-08 08:52 | -4.07743 | 122.44342 | 1387 ft | 168 kts | 79° |
| 2026-05-08 08:53 | -4.07091 | 122.45340 | 1985 ft | 191 kts | 36° |
| 2026-05-08 08:53 | -4.05706 | 122.45620 | 2250 ft | 227 kts | 354° |
| 2026-05-08 08:53 | -4.04231 | 122.44858 | 2498 ft | 254 kts | 313° |
| 2026-05-08 08:53 | -4.03269 | 122.43310 | 2839 ft | 275 kts | 297° |
| 2026-05-08 08:54 | -4.02353 | 122.41568 | 3049 ft | 289 kts | 298° |
| 2026-05-08 08:54 | -4.01355 | 122.39804 | 3048 ft | 290 kts | 301° |
| 2026-05-08 08:54 | -4.00325 | 122.38071 | 3063 ft | 288 kts | 301° |
| 2026-05-08 08:54 | -3.99311 | 122.36343 | 3121 ft | 289 kts | 294° |